sensor_id;sensor_type;location;lat;lon;timestamp;P1;durP1;ratioP1;P2;durP2;ratioP2
20832;SDS011;56075;51.264;7.150;2022-12-07T00:02:26;88.27;;;27.30;;
20832;SDS011;56075;51.264;7.150;2022-12-07T00:04:58;72.40;;;22.50;;
20832;SDS011;56075;51.264;7.150;2022-12-07T00:07:29;85.63;;;27.10;;
20832;SDS011;56075;51.264;7.150;2022-12-07T00:10:00;78.77;;;25.33;;
20832;SDS011;56075;51.264;7.150;2022-12-07T00:12:32;72.80;;;24.50;;
20832;SDS011;56075;51.264;7.150;2022-12-07T00:15:03;82.13;;;26.77;;
20832;SDS011;56075;51.264;7.150;2022-12-07T00:17:35;77.37;;;25.27;;
20832;SDS011;56075;51.264;7.150;2022-12-07T00:20:06;83.63;;;26.30;;
20832;SDS011;56075;51.264;7.150;2022-12-07T00:22:38;71.50;;;24.43;;
20832;SDS011;56075;51.264;7.150;2022-12-07T00:25:09;71.23;;;23.50;;
20832;SDS011;56075;51.264;7.150;2022-12-07T00:27:41;77.50;;;25.20;;
20832;SDS011;56075;51.264;7.150;2022-12-07T00:30:12;80.10;;;25.50;;
20832;SDS011;56075;51.264;7.150;2022-12-07T00:32:44;78.10;;;25.57;;
20832;SDS011;56075;51.264;7.150;2022-12-07T00:35:15;77.53;;;25.07;;
20832;SDS011;56075;51.264;7.150;2022-12-07T00:37:46;79.33;;;25.27;;
20832;SDS011;56075;51.264;7.150;2022-12-07T00:40:17;92.20;;;29.53;;
20832;SDS011;56075;51.264;7.150;2022-12-07T00:42:48;83.90;;;26.67;;
20832;SDS011;56075;51.264;7.150;2022-12-07T00:45:20;86.83;;;27.57;;
20832;SDS011;56075;51.264;7.150;2022-12-07T00:47:51;77.73;;;25.83;;
20832;SDS011;56075;51.264;7.150;2022-12-07T00:50:22;87.10;;;28.27;;
20832;SDS011;56075;51.264;7.150;2022-12-07T00:52:53;91.50;;;27.30;;
20832;SDS011;56075;51.264;7.150;2022-12-07T00:55:25;87.47;;;25.90;;
20832;SDS011;56075;51.264;7.150;2022-12-07T00:57:56;77.97;;;26.40;;
20832;SDS011;56075;51.264;7.150;2022-12-07T01:00:27;83.77;;;25.43;;
20832;SDS011;56075;51.264;7.150;2022-12-07T01:02:59;87.10;;;25.80;;
20832;SDS011;56075;51.264;7.150;2022-12-07T01:05:30;80.73;;;25.73;;
20832;SDS011;56075;51.264;7.150;2022-12-07T01:08:02;73.13;;;23.80;;
20832;SDS011;56075;51.264;7.150;2022-12-07T01:10:33;86.13;;;25.40;;
20832;SDS011;56075;51.264;7.150;2022-12-07T01:13:05;88.77;;;26.90;;
20832;SDS011;56075;51.264;7.150;2022-12-07T01:15:40;86.67;;;27.27;;
20832;SDS011;56075;51.264;7.150;2022-12-07T01:18:11;101.10;;;27.03;;
20832;SDS011;56075;51.264;7.150;2022-12-07T01:20:42;99.10;;;29.67;;
20832;SDS011;56075;51.264;7.150;2022-12-07T01:23:13;89.87;;;27.67;;
20832;SDS011;56075;51.264;7.150;2022-12-07T01:25:45;95.97;;;27.77;;
20832;SDS011;56075;51.264;7.150;2022-12-07T01:28:23;102.40;;;28.53;;
20832;SDS011;56075;51.264;7.150;2022-12-07T01:31:05;95.20;;;28.70;;
20832;SDS011;56075;51.264;7.150;2022-12-07T01:33:43;97.77;;;27.77;;
20832;SDS011;56075;51.264;7.150;2022-12-07T01:36:21;103.23;;;28.17;;
20832;SDS011;56075;51.264;7.150;2022-12-07T01:38:54;91.17;;;27.70;;
20832;SDS011;56075;51.264;7.150;2022-12-07T01:41:32;92.20;;;26.97;;
20832;SDS011;56075;51.264;7.150;2022-12-07T01:44:08;99.83;;;28.60;;
20832;SDS011;56075;51.264;7.150;2022-12-07T01:46:46;93.17;;;25.50;;
20832;SDS011;56075;51.264;7.150;2022-12-07T01:51:57;92.30;;;26.43;;
20832;SDS011;56075;51.264;7.150;2022-12-07T01:54:30;96.07;;;27.50;;
20832;SDS011;56075;51.264;7.150;2022-12-07T01:57:03;94.17;;;26.73;;
20832;SDS011;56075;51.264;7.150;2022-12-07T01:59:35;96.07;;;27.17;;
20832;SDS011;56075;51.264;7.150;2022-12-07T02:02:07;102.83;;;27.87;;
20832;SDS011;56075;51.264;7.150;2022-12-07T02:04:41;99.03;;;27.67;;
20832;SDS011;56075;51.264;7.150;2022-12-07T02:07:13;96.07;;;28.60;;
20832;SDS011;56075;51.264;7.150;2022-12-07T02:09:44;101.80;;;27.60;;
20832;SDS011;56075;51.264;7.150;2022-12-07T02:12:16;96.97;;;27.93;;
20832;SDS011;56075;51.264;7.150;2022-12-07T02:14:47;104.67;;;30.23;;
20832;SDS011;56075;51.264;7.150;2022-12-07T02:17:28;107.23;;;30.50;;
20832;SDS011;56075;51.264;7.150;2022-12-07T02:20:28;104.60;;;29.57;;
20832;SDS011;56075;51.264;7.150;2022-12-07T02:23:09;110.10;;;29.90;;
20832;SDS011;56075;51.264;7.150;2022-12-07T02:26:01;108.07;;;28.37;;
20832;SDS011;56075;51.264;7.150;2022-12-07T02:31:10;129.20;;;32.00;;
20832;SDS011;56075;51.264;7.150;2022-12-07T02:33:44;125.57;;;30.97;;
20832;SDS011;56075;51.264;7.150;2022-12-07T02:36:18;125.37;;;30.33;;
20832;SDS011;56075;51.264;7.150;2022-12-07T02:39:06;123.43;;;32.00;;
20832;SDS011;56075;51.264;7.150;2022-12-07T02:41:50;118.90;;;30.03;;
20832;SDS011;56075;51.264;7.150;2022-12-07T02:44:24;130.33;;;31.17;;
20832;SDS011;56075;51.264;7.150;2022-12-07T02:46:59;123.73;;;31.13;;
20832;SDS011;56075;51.264;7.150;2022-12-07T02:49:31;135.13;;;33.47;;
20832;SDS011;56075;51.264;7.150;2022-12-07T02:52:03;124.23;;;31.50;;
20832;SDS011;56075;51.264;7.150;2022-12-07T02:54:34;123.33;;;31.30;;
20832;SDS011;56075;51.264;7.150;2022-12-07T02:59:59;119.47;;;29.73;;
20832;SDS011;56075;51.264;7.150;2022-12-07T03:02:38;108.13;;;26.97;;
20832;SDS011;56075;51.264;7.150;2022-12-07T03:05:19;120.77;;;30.33;;
20832;SDS011;56075;51.264;7.150;2022-12-07T03:08:01;125.70;;;30.00;;
20832;SDS011;56075;51.264;7.150;2022-12-07T03:10:41;120.00;;;29.33;;
20832;SDS011;56075;51.264;7.150;2022-12-07T03:13:34;110.03;;;29.10;;
20832;SDS011;56075;51.264;7.150;2022-12-07T03:16:10;109.87;;;30.60;;
20832;SDS011;56075;51.264;7.150;2022-12-07T03:18:52;121.97;;;30.37;;
20832;SDS011;56075;51.264;7.150;2022-12-07T03:21:26;124.80;;;30.50;;
20832;SDS011;56075;51.264;7.150;2022-12-07T03:23:58;112.47;;;29.53;;
20832;SDS011;56075;51.264;7.150;2022-12-07T03:26:32;104.93;;;26.10;;
20832;SDS011;56075;51.264;7.150;2022-12-07T03:29:17;106.13;;;29.73;;
20832;SDS011;56075;51.264;7.150;2022-12-07T03:31:53;108.57;;;28.47;;
20832;SDS011;56075;51.264;7.150;2022-12-07T03:34:34;119.23;;;30.53;;
20832;SDS011;56075;51.264;7.150;2022-12-07T03:37:08;105.30;;;27.90;;
20832;SDS011;56075;51.264;7.150;2022-12-07T03:39:45;106.73;;;26.63;;
20832;SDS011;56075;51.264;7.150;2022-12-07T03:42:17;106.77;;;29.13;;
20832;SDS011;56075;51.264;7.150;2022-12-07T03:44:48;100.37;;;26.57;;
20832;SDS011;56075;51.264;7.150;2022-12-07T03:47:26;88.13;;;26.00;;
20832;SDS011;56075;51.264;7.150;2022-12-07T03:50:02;80.97;;;24.03;;
20832;SDS011;56075;51.264;7.150;2022-12-07T03:52:37;110.37;;;28.27;;
20832;SDS011;56075;51.264;7.150;2022-12-07T03:55:15;92.10;;;27.50;;
20832;SDS011;56075;51.264;7.150;2022-12-07T03:57:51;96.57;;;27.57;;
20832;SDS011;56075;51.264;7.150;2022-12-07T04:00:24;90.40;;;26.83;;
20832;SDS011;56075;51.264;7.150;2022-12-07T04:02:56;84.70;;;25.40;;
20832;SDS011;56075;51.264;7.150;2022-12-07T04:05:27;94.27;;;26.63;;
20832;SDS011;56075;51.264;7.150;2022-12-07T04:07:59;90.37;;;26.73;;
20832;SDS011;56075;51.264;7.150;2022-12-07T04:10:30;75.57;;;24.40;;
20832;SDS011;56075;51.264;7.150;2022-12-07T04:13:02;85.40;;;25.20;;
20832;SDS011;56075;51.264;7.150;2022-12-07T04:15:33;85.07;;;26.03;;
20832;SDS011;56075;51.264;7.150;2022-12-07T04:18:05;73.67;;;24.60;;
20832;SDS011;56075;51.264;7.150;2022-12-07T04:20:36;68.63;;;23.40;;
20832;SDS011;56075;51.264;7.150;2022-12-07T04:23:08;74.07;;;24.23;;
20832;SDS011;56075;51.264;7.150;2022-12-07T04:25:39;62.60;;;22.60;;
20832;SDS011;56075;51.264;7.150;2022-12-07T04:28:11;67.20;;;22.73;;
20832;SDS011;56075;51.264;7.150;2022-12-07T04:30:42;63.60;;;22.03;;
20832;SDS011;56075;51.264;7.150;2022-12-07T04:33:13;60.87;;;22.30;;
20832;SDS011;56075;51.264;7.150;2022-12-07T04:35:44;57.57;;;21.53;;
20832;SDS011;56075;51.264;7.150;2022-12-07T04:38:16;53.27;;;19.83;;
20832;SDS011;56075;51.264;7.150;2022-12-07T04:40:47;55.50;;;20.00;;
20832;SDS011;56075;51.264;7.150;2022-12-07T04:43:19;51.63;;;18.87;;
20832;SDS011;56075;51.264;7.150;2022-12-07T04:45:50;50.07;;;17.80;;
20832;SDS011;56075;51.264;7.150;2022-12-07T04:48:21;54.30;;;19.97;;
20832;SDS011;56075;51.264;7.150;2022-12-07T04:50:53;54.43;;;20.57;;
20832;SDS011;56075;51.264;7.150;2022-12-07T04:53:24;45.20;;;18.23;;
20832;SDS011;56075;51.264;7.150;2022-12-07T04:55:56;49.73;;;19.50;;
20832;SDS011;56075;51.264;7.150;2022-12-07T04:58:27;49.77;;;17.53;;
20832;SDS011;56075;51.264;7.150;2022-12-07T05:00:59;58.57;;;19.53;;
20832;SDS011;56075;51.264;7.150;2022-12-07T05:03:30;62.67;;;22.07;;
20832;SDS011;56075;51.264;7.150;2022-12-07T05:06:02;65.73;;;22.47;;
20832;SDS011;56075;51.264;7.150;2022-12-07T05:08:33;64.70;;;23.13;;
20832;SDS011;56075;51.264;7.150;2022-12-07T05:11:05;73.23;;;22.47;;
20832;SDS011;56075;51.264;7.150;2022-12-07T05:13:37;68.10;;;22.70;;
20832;SDS011;56075;51.264;7.150;2022-12-07T05:16:08;70.97;;;22.63;;
20832;SDS011;56075;51.264;7.150;2022-12-07T05:18:39;63.80;;;20.73;;
20832;SDS011;56075;51.264;7.150;2022-12-07T05:21:11;65.23;;;21.13;;
20832;SDS011;56075;51.264;7.150;2022-12-07T05:23:42;63.83;;;20.93;;
20832;SDS011;56075;51.264;7.150;2022-12-07T05:26:13;66.83;;;23.47;;
20832;SDS011;56075;51.264;7.150;2022-12-07T05:28:45;76.07;;;22.10;;
20832;SDS011;56075;51.264;7.150;2022-12-07T05:31:16;72.70;;;22.97;;
20832;SDS011;56075;51.264;7.150;2022-12-07T05:33:48;69.27;;;23.07;;
20832;SDS011;56075;51.264;7.150;2022-12-07T05:36:19;81.63;;;25.10;;
20832;SDS011;56075;51.264;7.150;2022-12-07T05:38:51;84.53;;;24.07;;
20832;SDS011;56075;51.264;7.150;2022-12-07T05:41:22;71.23;;;23.33;;
20832;SDS011;56075;51.264;7.150;2022-12-07T05:44:13;78.77;;;23.67;;
20832;SDS011;56075;51.264;7.150;2022-12-07T05:46:44;81.97;;;22.30;;
20832;SDS011;56075;51.264;7.150;2022-12-07T05:49:16;75.63;;;24.00;;
20832;SDS011;56075;51.264;7.150;2022-12-07T05:51:47;74.00;;;23.70;;
20832;SDS011;56075;51.264;7.150;2022-12-07T05:54:18;69.30;;;21.43;;
20832;SDS011;56075;51.264;7.150;2022-12-07T05:56:50;73.57;;;23.43;;
20832;SDS011;56075;51.264;7.150;2022-12-07T05:59:21;79.77;;;24.90;;
20832;SDS011;56075;51.264;7.150;2022-12-07T06:01:57;81.57;;;24.63;;
20832;SDS011;56075;51.264;7.150;2022-12-07T06:04:29;66.40;;;20.83;;
20832;SDS011;56075;51.264;7.150;2022-12-07T06:07:05;77.50;;;24.07;;
20832;SDS011;56075;51.264;7.150;2022-12-07T06:09:37;69.10;;;22.17;;
20832;SDS011;56075;51.264;7.150;2022-12-07T06:12:09;77.63;;;23.90;;
20832;SDS011;56075;51.264;7.150;2022-12-07T06:15:00;74.07;;;22.40;;
20832;SDS011;56075;51.264;7.150;2022-12-07T06:17:32;66.73;;;22.13;;
20832;SDS011;56075;51.264;7.150;2022-12-07T06:20:03;64.80;;;22.60;;
20832;SDS011;56075;51.264;7.150;2022-12-07T06:22:35;66.80;;;23.13;;
20832;SDS011;56075;51.264;7.150;2022-12-07T06:25:07;52.90;;;17.60;;
20832;SDS011;56075;51.264;7.150;2022-12-07T06:27:39;62.83;;;21.23;;
20832;SDS011;56075;51.264;7.150;2022-12-07T06:30:10;58.03;;;21.03;;
20832;SDS011;56075;51.264;7.150;2022-12-07T06:32:42;60.60;;;20.70;;
20832;SDS011;56075;51.264;7.150;2022-12-07T06:35:13;63.43;;;20.83;;
20832;SDS011;56075;51.264;7.150;2022-12-07T06:37:45;60.50;;;19.50;;
20832;SDS011;56075;51.264;7.150;2022-12-07T06:40:16;59.70;;;20.67;;
20832;SDS011;56075;51.264;7.150;2022-12-07T06:42:48;57.40;;;20.00;;
20832;SDS011;56075;51.264;7.150;2022-12-07T06:45:19;55.50;;;20.57;;
20832;SDS011;56075;51.264;7.150;2022-12-07T06:47:50;62.70;;;19.97;;
20832;SDS011;56075;51.264;7.150;2022-12-07T06:50:22;55.13;;;19.43;;
20832;SDS011;56075;51.264;7.150;2022-12-07T06:52:53;59.20;;;20.77;;
20832;SDS011;56075;51.264;7.150;2022-12-07T06:55:24;53.90;;;18.57;;
20832;SDS011;56075;51.264;7.150;2022-12-07T06:57:55;56.47;;;19.43;;
20832;SDS011;56075;51.264;7.150;2022-12-07T07:00:27;60.27;;;19.00;;
20832;SDS011;56075;51.264;7.150;2022-12-07T07:02:59;60.63;;;19.70;;
20832;SDS011;56075;51.264;7.150;2022-12-07T07:05:30;55.87;;;19.07;;
20832;SDS011;56075;51.264;7.150;2022-12-07T07:10:37;60.17;;;20.57;;
20832;SDS011;56075;51.264;7.150;2022-12-07T07:13:08;57.77;;;19.93;;
20832;SDS011;56075;51.264;7.150;2022-12-07T07:15:40;57.87;;;20.10;;
20832;SDS011;56075;51.264;7.150;2022-12-07T07:18:11;58.97;;;20.03;;
20832;SDS011;56075;51.264;7.150;2022-12-07T07:20:42;58.50;;;20.03;;
20832;SDS011;56075;51.264;7.150;2022-12-07T07:23:13;52.00;;;18.87;;
20832;SDS011;56075;51.264;7.150;2022-12-07T07:25:45;53.33;;;19.57;;
20832;SDS011;56075;51.264;7.150;2022-12-07T07:28:17;56.83;;;19.40;;
20832;SDS011;56075;51.264;7.150;2022-12-07T07:30:48;54.87;;;18.83;;
20832;SDS011;56075;51.264;7.150;2022-12-07T07:33:20;54.37;;;18.70;;
20832;SDS011;56075;51.264;7.150;2022-12-07T07:35:51;57.30;;;19.63;;
20832;SDS011;56075;51.264;7.150;2022-12-07T07:38:22;50.47;;;19.30;;
20832;SDS011;56075;51.264;7.150;2022-12-07T07:40:54;55.53;;;18.83;;
20832;SDS011;56075;51.264;7.150;2022-12-07T07:43:25;50.17;;;16.80;;
20832;SDS011;56075;51.264;7.150;2022-12-07T07:45:57;47.13;;;17.47;;
20832;SDS011;56075;51.264;7.150;2022-12-07T07:48:28;53.27;;;17.43;;
20832;SDS011;56075;51.264;7.150;2022-12-07T07:51:00;50.20;;;17.33;;
20832;SDS011;56075;51.264;7.150;2022-12-07T07:53:31;53.70;;;19.00;;
20832;SDS011;56075;51.264;7.150;2022-12-07T07:56:03;49.27;;;16.83;;
20832;SDS011;56075;51.264;7.150;2022-12-07T07:58:34;53.87;;;19.00;;
20832;SDS011;56075;51.264;7.150;2022-12-07T08:01:06;47.23;;;16.70;;
20832;SDS011;56075;51.264;7.150;2022-12-07T08:03:38;54.53;;;19.20;;
20832;SDS011;56075;51.264;7.150;2022-12-07T08:06:09;53.70;;;19.77;;
20832;SDS011;56075;51.264;7.150;2022-12-07T08:08:41;46.17;;;16.13;;
20832;SDS011;56075;51.264;7.150;2022-12-07T08:11:12;54.10;;;18.13;;
20832;SDS011;56075;51.264;7.150;2022-12-07T08:13:47;54.37;;;17.77;;
20832;SDS011;56075;51.264;7.150;2022-12-07T08:16:18;52.23;;;18.10;;
20832;SDS011;56075;51.264;7.150;2022-12-07T08:18:50;56.40;;;18.57;;
20832;SDS011;56075;51.264;7.150;2022-12-07T08:21:21;62.60;;;18.67;;
20832;SDS011;56075;51.264;7.150;2022-12-07T08:23:53;51.63;;;19.20;;
20832;SDS011;56075;51.264;7.150;2022-12-07T08:26:24;70.40;;;19.87;;
20832;SDS011;56075;51.264;7.150;2022-12-07T08:28:56;60.47;;;19.00;;
20832;SDS011;56075;51.264;7.150;2022-12-07T08:31:27;40.77;;;13.83;;
20832;SDS011;56075;51.264;7.150;2022-12-07T08:33:59;53.23;;;17.33;;
20832;SDS011;56075;51.264;7.150;2022-12-07T08:36:30;53.13;;;17.03;;
20832;SDS011;56075;51.264;7.150;2022-12-07T08:39:02;62.07;;;18.07;;
20832;SDS011;56075;51.264;7.150;2022-12-07T08:41:34;59.67;;;18.97;;
20832;SDS011;56075;51.264;7.150;2022-12-07T08:44:05;54.43;;;19.60;;
20832;SDS011;56075;51.264;7.150;2022-12-07T08:46:37;45.60;;;16.77;;
20832;SDS011;56075;51.264;7.150;2022-12-07T08:49:16;52.83;;;16.87;;
20832;SDS011;56075;51.264;7.150;2022-12-07T08:51:49;39.37;;;13.50;;
20832;SDS011;56075;51.264;7.150;2022-12-07T08:54:21;43.17;;;14.90;;
20832;SDS011;56075;51.264;7.150;2022-12-07T08:56:52;41.30;;;17.00;;
20832;SDS011;56075;51.264;7.150;2022-12-07T08:59:24;31.90;;;13.73;;
20832;SDS011;56075;51.264;7.150;2022-12-07T09:01:56;39.13;;;15.20;;
20832;SDS011;56075;51.264;7.150;2022-12-07T09:04:27;39.10;;;15.13;;
20832;SDS011;56075;51.264;7.150;2022-12-07T09:06:59;40.73;;;16.07;;
20832;SDS011;56075;51.264;7.150;2022-12-07T09:09:30;39.57;;;14.43;;
20832;SDS011;56075;51.264;7.150;2022-12-07T09:12:02;40.70;;;13.87;;
20832;SDS011;56075;51.264;7.150;2022-12-07T09:14:33;35.57;;;14.50;;
20832;SDS011;56075;51.264;7.150;2022-12-07T09:17:09;35.20;;;13.30;;
20832;SDS011;56075;51.264;7.150;2022-12-07T09:19:40;35.27;;;14.47;;
20832;SDS011;56075;51.264;7.150;2022-12-07T09:22:12;35.63;;;14.83;;
20832;SDS011;56075;51.264;7.150;2022-12-07T09:24:44;37.83;;;14.53;;
20832;SDS011;56075;51.264;7.150;2022-12-07T09:27:16;39.13;;;14.20;;
20832;SDS011;56075;51.264;7.150;2022-12-07T09:29:48;32.10;;;14.27;;
20832;SDS011;56075;51.264;7.150;2022-12-07T09:32:19;32.53;;;13.33;;
20832;SDS011;56075;51.264;7.150;2022-12-07T09:34:51;29.00;;;11.90;;
20832;SDS011;56075;51.264;7.150;2022-12-07T09:37:22;36.87;;;13.93;;
20832;SDS011;56075;51.264;7.150;2022-12-07T09:39:54;28.63;;;12.70;;
20832;SDS011;56075;51.264;7.150;2022-12-07T09:42:29;24.80;;;10.67;;
20832;SDS011;56075;51.264;7.150;2022-12-07T09:45:04;26.30;;;11.13;;
20832;SDS011;56075;51.264;7.150;2022-12-07T09:47:36;27.00;;;11.23;;
20832;SDS011;56075;51.264;7.150;2022-12-07T09:50:12;28.87;;;13.20;;
20832;SDS011;56075;51.264;7.150;2022-12-07T09:52:44;32.23;;;12.90;;
20832;SDS011;56075;51.264;7.150;2022-12-07T09:55:22;35.27;;;13.33;;
20832;SDS011;56075;51.264;7.150;2022-12-07T09:57:55;36.53;;;15.00;;
20832;SDS011;56075;51.264;7.150;2022-12-07T10:00:29;35.13;;;14.33;;
20832;SDS011;56075;51.264;7.150;2022-12-07T10:03:01;33.53;;;14.60;;
20832;SDS011;56075;51.264;7.150;2022-12-07T10:05:36;30.33;;;12.80;;
20832;SDS011;56075;51.264;7.150;2022-12-07T10:08:13;32.93;;;13.77;;
20832;SDS011;56075;51.264;7.150;2022-12-07T10:10:48;31.20;;;12.63;;
20832;SDS011;56075;51.264;7.150;2022-12-07T10:13:46;30.43;;;12.57;;
20832;SDS011;56075;51.264;7.150;2022-12-07T10:16:35;32.50;;;13.70;;
20832;SDS011;56075;51.264;7.150;2022-12-07T10:19:19;33.03;;;13.77;;
20832;SDS011;56075;51.264;7.150;2022-12-07T10:22:11;33.83;;;14.67;;
20832;SDS011;56075;51.264;7.150;2022-12-07T10:24:46;29.63;;;13.93;;
20832;SDS011;56075;51.264;7.150;2022-12-07T10:27:18;33.07;;;13.97;;
20832;SDS011;56075;51.264;7.150;2022-12-07T10:29:59;39.63;;;14.80;;
20832;SDS011;56075;51.264;7.150;2022-12-07T10:32:38;36.90;;;15.47;;
20832;SDS011;56075;51.264;7.150;2022-12-07T10:35:23;35.67;;;14.93;;
20832;SDS011;56075;51.264;7.150;2022-12-07T10:37:59;32.10;;;14.13;;
20832;SDS011;56075;51.264;7.150;2022-12-07T10:40:35;37.03;;;14.47;;
20832;SDS011;56075;51.264;7.150;2022-12-07T10:45:57;41.47;;;16.50;;
20832;SDS011;56075;51.264;7.150;2022-12-07T10:48:59;35.27;;;13.67;;
20832;SDS011;56075;51.264;7.150;2022-12-07T10:51:55;34.33;;;14.07;;
20832;SDS011;56075;51.264;7.150;2022-12-07T10:54:42;32.13;;;14.13;;
20832;SDS011;56075;51.264;7.150;2022-12-07T10:57:34;36.17;;;14.43;;
20832;SDS011;56075;51.264;7.150;2022-12-07T11:09:16;33.07;;;13.93;;
20832;SDS011;56075;51.264;7.150;2022-12-07T11:15:04;29.33;;;13.13;;
20832;SDS011;56075;51.264;7.150;2022-12-07T11:26:55;20.70;;;8.03;;
20832;SDS011;56075;51.264;7.150;2022-12-07T11:31:38;13.37;;;6.20;;
20832;SDS011;56075;51.264;7.150;2022-12-07T11:36:55;15.30;;;6.57;;
20832;SDS011;56075;51.264;7.150;2022-12-07T11:42:16;17.53;;;6.23;;
20832;SDS011;56075;51.264;7.150;2022-12-07T11:45:01;13.13;;;6.70;;
20832;SDS011;56075;51.264;7.150;2022-12-07T11:47:47;14.13;;;6.33;;
20832;SDS011;56075;51.264;7.150;2022-12-07T11:53:52;13.90;;;6.27;;
20832;SDS011;56075;51.264;7.150;2022-12-07T11:56:26;11.63;;;5.40;;
20832;SDS011;56075;51.264;7.150;2022-12-07T11:59:11;15.13;;;6.40;;
20832;SDS011;56075;51.264;7.150;2022-12-07T12:04:23;14.83;;;6.53;;
20832;SDS011;56075;51.264;7.150;2022-12-07T12:07:17;17.83;;;7.20;;
20832;SDS011;56075;51.264;7.150;2022-12-07T12:09:58;18.37;;;7.27;;
20832;SDS011;56075;51.264;7.150;2022-12-07T12:12:48;17.40;;;7.23;;
20832;SDS011;56075;51.264;7.150;2022-12-07T12:20:41;18.60;;;6.70;;
20832;SDS011;56075;51.264;7.150;2022-12-07T12:23:28;18.00;;;6.40;;
20832;SDS011;56075;51.264;7.150;2022-12-07T12:26:19;18.67;;;7.00;;
20832;SDS011;56075;51.264;7.150;2022-12-07T12:34:00;13.03;;;6.20;;
20832;SDS011;56075;51.264;7.150;2022-12-07T12:39:14;16.83;;;6.63;;
20832;SDS011;56075;51.264;7.150;2022-12-07T12:47:01;16.10;;;6.60;;
20832;SDS011;56075;51.264;7.150;2022-12-07T12:55:14;15.03;;;4.97;;
20832;SDS011;56075;51.264;7.150;2022-12-07T12:58:38;12.80;;;5.07;;
20832;SDS011;56075;51.264;7.150;2022-12-07T13:00:49;11.17;;;4.83;;
20832;SDS011;56075;51.264;7.150;2022-12-07T13:03:57;10.73;;;4.67;;
20832;SDS011;56075;51.264;7.150;2022-12-07T13:06:34;9.67;;;3.77;;
20832;SDS011;56075;51.264;7.150;2022-12-07T13:09:15;10.27;;;3.60;;
20832;SDS011;56075;51.264;7.150;2022-12-07T13:11:48;11.60;;;3.33;;
20832;SDS011;56075;51.264;7.150;2022-12-07T13:20:06;9.37;;;3.00;;
20832;SDS011;56075;51.264;7.150;2022-12-07T13:22:39;10.20;;;2.87;;
20832;SDS011;56075;51.264;7.150;2022-12-07T13:30:42;5.57;;;2.50;;
20832;SDS011;56075;51.264;7.150;2022-12-07T13:33:35;7.90;;;2.57;;
20832;SDS011;56075;51.264;7.150;2022-12-07T13:36:10;10.40;;;2.80;;
20832;SDS011;56075;51.264;7.150;2022-12-07T13:38:52;6.70;;;2.30;;
20832;SDS011;56075;51.264;7.150;2022-12-07T13:41:28;9.30;;;2.27;;
20832;SDS011;56075;51.264;7.150;2022-12-07T13:44:01;6.33;;;1.90;;
20832;SDS011;56075;51.264;7.150;2022-12-07T13:49:24;7.17;;;2.00;;
20832;SDS011;56075;51.264;7.150;2022-12-07T13:55:11;9.37;;;2.23;;
20832;SDS011;56075;51.264;7.150;2022-12-07T13:57:47;5.60;;;2.00;;
20832;SDS011;56075;51.264;7.150;2022-12-07T14:00:20;4.57;;;2.00;;
20832;SDS011;56075;51.264;7.150;2022-12-07T14:03:00;5.73;;;1.93;;
20832;SDS011;56075;51.264;7.150;2022-12-07T14:05:33;9.77;;;2.33;;
20832;SDS011;56075;51.264;7.150;2022-12-07T14:10:52;4.70;;;1.90;;
20832;SDS011;56075;51.264;7.150;2022-12-07T14:16:26;7.50;;;1.70;;
20832;SDS011;56075;51.264;7.150;2022-12-07T14:18:59;7.13;;;2.10;;
20832;SDS011;56075;51.264;7.150;2022-12-07T14:21:32;5.53;;;1.83;;
20832;SDS011;56075;51.264;7.150;2022-12-07T14:24:17;5.93;;;2.00;;
20832;SDS011;56075;51.264;7.150;2022-12-07T14:26:49;4.80;;;2.00;;
20832;SDS011;56075;51.264;7.150;2022-12-07T14:32:13;7.33;;;1.87;;
20832;SDS011;56075;51.264;7.150;2022-12-07T14:34:59;5.00;;;1.90;;
20832;SDS011;56075;51.264;7.150;2022-12-07T14:37:31;4.83;;;2.37;;
20832;SDS011;56075;51.264;7.150;2022-12-07T14:40:02;5.33;;;2.17;;
20832;SDS011;56075;51.264;7.150;2022-12-07T14:42:34;8.23;;;2.37;;
20832;SDS011;56075;51.264;7.150;2022-12-07T14:45:10;9.10;;;2.50;;
20832;SDS011;56075;51.264;7.150;2022-12-07T14:47:44;6.83;;;2.30;;
20832;SDS011;56075;51.264;7.150;2022-12-07T14:50:18;7.47;;;2.33;;
20832;SDS011;56075;51.264;7.150;2022-12-07T14:52:57;8.57;;;2.47;;
20832;SDS011;56075;51.264;7.150;2022-12-07T14:55:32;7.63;;;2.70;;
20832;SDS011;56075;51.264;7.150;2022-12-07T14:58:03;10.53;;;3.17;;
20832;SDS011;56075;51.264;7.150;2022-12-07T15:00:35;8.20;;;2.60;;
20832;SDS011;56075;51.264;7.150;2022-12-07T15:03:06;8.23;;;3.00;;
20832;SDS011;56075;51.264;7.150;2022-12-07T15:05:37;7.70;;;3.00;;
20832;SDS011;56075;51.264;7.150;2022-12-07T15:08:10;10.00;;;3.03;;
20832;SDS011;56075;51.264;7.150;2022-12-07T15:10:43;6.20;;;2.70;;
20832;SDS011;56075;51.264;7.150;2022-12-07T15:13:14;9.90;;;3.43;;
20832;SDS011;56075;51.264;7.150;2022-12-07T15:16:10;13.40;;;3.67;;
20832;SDS011;56075;51.264;7.150;2022-12-07T15:18:43;14.93;;;3.90;;
20832;SDS011;56075;51.264;7.150;2022-12-07T15:21:14;13.67;;;4.00;;
20832;SDS011;56075;51.264;7.150;2022-12-07T15:23:46;15.03;;;3.77;;
20832;SDS011;56075;51.264;7.150;2022-12-07T15:26:17;11.03;;;4.40;;
20832;SDS011;56075;51.264;7.150;2022-12-07T15:28:48;12.27;;;4.30;;
20832;SDS011;56075;51.264;7.150;2022-12-07T15:31:20;15.50;;;4.10;;
20832;SDS011;56075;51.264;7.150;2022-12-07T15:33:52;12.67;;;3.60;;
20832;SDS011;56075;51.264;7.150;2022-12-07T15:36:25;11.13;;;4.20;;
20832;SDS011;56075;51.264;7.150;2022-12-07T15:38:57;12.33;;;4.00;;
20832;SDS011;56075;51.264;7.150;2022-12-07T15:41:29;15.73;;;4.63;;
20832;SDS011;56075;51.264;7.150;2022-12-07T15:44:01;7.23;;;3.60;;
20832;SDS011;56075;51.264;7.150;2022-12-07T15:46:50;12.87;;;3.67;;
20832;SDS011;56075;51.264;7.150;2022-12-07T15:49:21;11.00;;;3.30;;
20832;SDS011;56075;51.264;7.150;2022-12-07T15:51:53;12.13;;;3.30;;
20832;SDS011;56075;51.264;7.150;2022-12-07T15:54:25;10.97;;;4.90;;
20832;SDS011;56075;51.264;7.150;2022-12-07T15:56:57;11.13;;;3.60;;
20832;SDS011;56075;51.264;7.150;2022-12-07T15:59:29;12.30;;;3.40;;
20832;SDS011;56075;51.264;7.150;2022-12-07T16:02:00;14.30;;;3.40;;
20832;SDS011;56075;51.264;7.150;2022-12-07T16:04:31;11.63;;;3.80;;
20832;SDS011;56075;51.264;7.150;2022-12-07T16:07:02;11.63;;;4.03;;
20832;SDS011;56075;51.264;7.150;2022-12-07T16:09:35;9.20;;;3.23;;
20832;SDS011;56075;51.264;7.150;2022-12-07T16:12:06;9.93;;;3.53;;
20832;SDS011;56075;51.264;7.150;2022-12-07T16:14:37;17.07;;;4.63;;
20832;SDS011;56075;51.264;7.150;2022-12-07T16:17:09;16.33;;;6.00;;
20832;SDS011;56075;51.264;7.150;2022-12-07T16:19:40;15.20;;;5.30;;
20832;SDS011;56075;51.264;7.150;2022-12-07T16:22:12;15.73;;;4.53;;
20832;SDS011;56075;51.264;7.150;2022-12-07T16:24:43;11.73;;;4.50;;
20832;SDS011;56075;51.264;7.150;2022-12-07T16:27:14;10.77;;;4.60;;
20832;SDS011;56075;51.264;7.150;2022-12-07T16:29:46;15.80;;;4.23;;
20832;SDS011;56075;51.264;7.150;2022-12-07T16:32:17;17.53;;;4.60;;
20832;SDS011;56075;51.264;7.150;2022-12-07T16:34:48;14.53;;;4.03;;
20832;SDS011;56075;51.264;7.150;2022-12-07T16:37:19;10.97;;;4.50;;
20832;SDS011;56075;51.264;7.150;2022-12-07T16:39:50;15.80;;;4.53;;
20832;SDS011;56075;51.264;7.150;2022-12-07T16:42:22;13.87;;;5.67;;
20832;SDS011;56075;51.264;7.150;2022-12-07T16:44:53;15.00;;;4.77;;
20832;SDS011;56075;51.264;7.150;2022-12-07T16:47:24;12.67;;;4.53;;